sensor_id;sensor_type;location;lat;lon;timestamp;P1;durP1;ratioP1;P2;durP2;ratioP2
76591;SDS011;65481;47.600;19.682;2022-12-07T00:03:22;26.60;;;14.98;;
76591;SDS011;65481;47.600;19.682;2022-12-07T00:08:22;24.27;;;14.30;;
76591;SDS011;65481;47.600;19.682;2022-12-07T00:13:23;29.45;;;16.98;;
76591;SDS011;65481;47.600;19.682;2022-12-07T00:18:23;27.40;;;15.35;;
76591;SDS011;65481;47.600;19.682;2022-12-07T00:23:24;21.30;;;14.32;;
76591;SDS011;65481;47.600;19.682;2022-12-07T00:28:24;23.00;;;13.15;;
76591;SDS011;65481;47.600;19.682;2022-12-07T00:33:25;21.55;;;12.63;;
76591;SDS011;65481;47.600;19.682;2022-12-07T00:38:27;20.42;;;12.35;;
76591;SDS011;65481;47.600;19.682;2022-12-07T00:43:31;22.60;;;12.98;;
76591;SDS011;65481;47.600;19.682;2022-12-07T00:48:33;24.60;;;13.52;;
76591;SDS011;65481;47.600;19.682;2022-12-07T00:53:34;23.25;;;12.40;;
76591;SDS011;65481;47.600;19.682;2022-12-07T00:58:35;20.33;;;11.88;;
76591;SDS011;65481;47.600;19.682;2022-12-07T01:03:36;30.52;;;15.75;;
76591;SDS011;65481;47.600;19.682;2022-12-07T01:08:37;27.55;;;13.95;;
76591;SDS011;65481;47.600;19.682;2022-12-07T01:13:37;26.58;;;14.90;;
76591;SDS011;65481;47.600;19.682;2022-12-07T01:18:39;25.38;;;14.07;;
76591;SDS011;65481;47.600;19.682;2022-12-07T01:23:39;25.13;;;13.68;;
76591;SDS011;65481;47.600;19.682;2022-12-07T01:28:40;21.83;;;13.52;;
76591;SDS011;65481;47.600;19.682;2022-12-07T01:33:41;23.98;;;13.82;;
76591;SDS011;65481;47.600;19.682;2022-12-07T01:38:43;22.00;;;12.73;;
76591;SDS011;65481;47.600;19.682;2022-12-07T01:54:22;29.10;;;15.77;;
76591;SDS011;65481;47.600;19.682;2022-12-07T01:59:23;32.50;;;15.55;;
76591;SDS011;65481;47.600;19.682;2022-12-07T02:04:26;28.13;;;13.60;;
76591;SDS011;65481;47.600;19.682;2022-12-07T02:09:26;24.08;;;14.05;;
76591;SDS011;65481;47.600;19.682;2022-12-07T02:14:27;25.13;;;13.10;;
76591;SDS011;65481;47.600;19.682;2022-12-07T02:30:17;26.52;;;15.07;;
76591;SDS011;65481;47.600;19.682;2022-12-07T02:35:22;23.90;;;13.90;;
76591;SDS011;65481;47.600;19.682;2022-12-07T02:40:53;24.08;;;13.98;;
76591;SDS011;65481;47.600;19.682;2022-12-07T02:45:59;26.13;;;13.98;;
76591;SDS011;65481;47.600;19.682;2022-12-07T02:51:04;23.70;;;13.87;;
76591;SDS011;65481;47.600;19.682;2022-12-07T02:56:07;23.67;;;14.13;;
76591;SDS011;65481;47.600;19.682;2022-12-07T03:06:53;23.70;;;14.93;;
76591;SDS011;65481;47.600;19.682;2022-12-07T03:12:17;27.90;;;15.65;;
76591;SDS011;65481;47.600;19.682;2022-12-07T03:17:25;25.48;;;15.55;;
76591;SDS011;65481;47.600;19.682;2022-12-07T03:22:30;27.20;;;16.17;;
76591;SDS011;65481;47.600;19.682;2022-12-07T03:27:35;30.85;;;16.08;;
76591;SDS011;65481;47.600;19.682;2022-12-07T03:32:45;30.10;;;17.75;;
76591;SDS011;65481;47.600;19.682;2022-12-07T03:37:57;30.85;;;17.08;;
76591;SDS011;65481;47.600;19.682;2022-12-07T03:43:04;31.13;;;18.30;;
76591;SDS011;65481;47.600;19.682;2022-12-07T03:48:07;32.13;;;18.00;;
76591;SDS011;65481;47.600;19.682;2022-12-07T03:53:18;35.28;;;19.42;;
76591;SDS011;65481;47.600;19.682;2022-12-07T03:58:24;33.25;;;18.48;;
76591;SDS011;65481;47.600;19.682;2022-12-07T04:03:25;33.90;;;18.13;;
76591;SDS011;65481;47.600;19.682;2022-12-07T04:08:26;31.25;;;18.23;;
76591;SDS011;65481;47.600;19.682;2022-12-07T04:13:26;31.38;;;18.75;;
76591;SDS011;65481;47.600;19.682;2022-12-07T04:18:27;30.98;;;18.33;;
76591;SDS011;65481;47.600;19.682;2022-12-07T04:23:27;31.65;;;17.48;;
76591;SDS011;65481;47.600;19.682;2022-12-07T04:28:28;29.80;;;16.45;;
76591;SDS011;65481;47.600;19.682;2022-12-07T04:33:28;30.90;;;16.98;;
76591;SDS011;65481;47.600;19.682;2022-12-07T04:38:29;28.48;;;15.95;;
76591;SDS011;65481;47.600;19.682;2022-12-07T04:43:29;30.27;;;17.05;;
76591;SDS011;65481;47.600;19.682;2022-12-07T04:48:30;27.63;;;15.82;;
76591;SDS011;65481;47.600;19.682;2022-12-07T04:53:30;27.90;;;15.43;;
76591;SDS011;65481;47.600;19.682;2022-12-07T04:58:31;26.05;;;15.23;;
76591;SDS011;65481;47.600;19.682;2022-12-07T05:03:31;28.95;;;16.75;;
76591;SDS011;65481;47.600;19.682;2022-12-07T05:08:32;27.08;;;15.27;;
76591;SDS011;65481;47.600;19.682;2022-12-07T05:13:34;30.75;;;16.33;;
76591;SDS011;65481;47.600;19.682;2022-12-07T05:18:35;25.63;;;15.50;;
76591;SDS011;65481;47.600;19.682;2022-12-07T05:23:35;26.35;;;15.13;;
76591;SDS011;65481;47.600;19.682;2022-12-07T05:28:36;20.70;;;12.50;;
76591;SDS011;65481;47.600;19.682;2022-12-07T05:33:36;17.15;;;9.55;;
76591;SDS011;65481;47.600;19.682;2022-12-07T05:38:37;20.50;;;10.02;;
76591;SDS011;65481;47.600;19.682;2022-12-07T05:43:37;17.05;;;9.93;;
76591;SDS011;65481;47.600;19.682;2022-12-07T05:48:38;17.13;;;9.18;;
76591;SDS011;65481;47.600;19.682;2022-12-07T05:53:38;18.63;;;9.27;;
76591;SDS011;65481;47.600;19.682;2022-12-07T05:58:38;18.35;;;10.05;;
76591;SDS011;65481;47.600;19.682;2022-12-07T06:03:58;19.27;;;10.95;;
76591;SDS011;65481;47.600;19.682;2022-12-07T06:08:58;22.08;;;11.45;;
76591;SDS011;65481;47.600;19.682;2022-12-07T06:13:59;18.80;;;9.57;;
76591;SDS011;65481;47.600;19.682;2022-12-07T06:18:59;20.40;;;10.63;;
76591;SDS011;65481;47.600;19.682;2022-12-07T06:24:00;18.75;;;10.77;;
76591;SDS011;65481;47.600;19.682;2022-12-07T06:29:01;19.17;;;11.02;;
76591;SDS011;65481;47.600;19.682;2022-12-07T06:34:06;18.25;;;9.55;;
76591;SDS011;65481;47.600;19.682;2022-12-07T06:44:10;25.27;;;10.65;;
76591;SDS011;65481;47.600;19.682;2022-12-07T06:49:10;16.50;;;9.75;;
76591;SDS011;65481;47.600;19.682;2022-12-07T06:54:12;17.63;;;9.93;;
76591;SDS011;65481;47.600;19.682;2022-12-07T06:59:13;17.17;;;9.75;;
76591;SDS011;65481;47.600;19.682;2022-12-07T07:04:14;19.88;;;11.05;;
76591;SDS011;65481;47.600;19.682;2022-12-07T07:09:14;18.80;;;10.98;;
76591;SDS011;65481;47.600;19.682;2022-12-07T07:14:15;20.20;;;10.52;;
76591;SDS011;65481;47.600;19.682;2022-12-07T07:19:19;17.92;;;10.45;;
76591;SDS011;65481;47.600;19.682;2022-12-07T07:24:19;15.90;;;9.90;;
76591;SDS011;65481;47.600;19.682;2022-12-07T07:29:19;15.43;;;9.65;;
76591;SDS011;65481;47.600;19.682;2022-12-07T07:34:20;15.95;;;9.50;;
76591;SDS011;65481;47.600;19.682;2022-12-07T07:39:20;16.85;;;9.90;;
76591;SDS011;65481;47.600;19.682;2022-12-07T07:44:21;15.68;;;9.20;;
76591;SDS011;65481;47.600;19.682;2022-12-07T07:49:21;14.05;;;8.75;;
76591;SDS011;65481;47.600;19.682;2022-12-07T07:54:22;14.63;;;9.48;;
76591;SDS011;65481;47.600;19.682;2022-12-07T07:59:22;14.73;;;8.35;;
76591;SDS011;65481;47.600;19.682;2022-12-07T08:04:24;14.35;;;8.88;;
76591;SDS011;65481;47.600;19.682;2022-12-07T08:09:26;13.68;;;8.45;;
76591;SDS011;65481;47.600;19.682;2022-12-07T08:14:26;13.88;;;8.65;;
76591;SDS011;65481;47.600;19.682;2022-12-07T08:19:27;17.63;;;9.57;;
76591;SDS011;65481;47.600;19.682;2022-12-07T08:24:28;16.20;;;10.02;;
76591;SDS011;65481;47.600;19.682;2022-12-07T08:29:28;14.63;;;9.70;;
76591;SDS011;65481;47.600;19.682;2022-12-07T08:34:29;18.10;;;10.63;;
76591;SDS011;65481;47.600;19.682;2022-12-07T08:39:30;17.25;;;9.65;;
76591;SDS011;65481;47.600;19.682;2022-12-07T08:44:30;18.92;;;10.98;;
76591;SDS011;65481;47.600;19.682;2022-12-07T08:49:31;17.67;;;10.32;;
76591;SDS011;65481;47.600;19.682;2022-12-07T08:54:36;18.40;;;11.35;;
76591;SDS011;65481;47.600;19.682;2022-12-07T08:59:39;20.38;;;11.65;;
76591;SDS011;65481;47.600;19.682;2022-12-07T09:04:40;20.52;;;11.70;;
76591;SDS011;65481;47.600;19.682;2022-12-07T09:09:40;19.58;;;11.30;;
76591;SDS011;65481;47.600;19.682;2022-12-07T09:14:41;21.50;;;13.05;;
76591;SDS011;65481;47.600;19.682;2022-12-07T09:19:42;19.73;;;11.60;;
76591;SDS011;65481;47.600;19.682;2022-12-07T09:24:43;18.85;;;11.65;;
76591;SDS011;65481;47.600;19.682;2022-12-07T09:29:45;18.15;;;12.15;;
76591;SDS011;65481;47.600;19.682;2022-12-07T09:34:46;19.13;;;12.15;;
76591;SDS011;65481;47.600;19.682;2022-12-07T09:39:46;15.38;;;10.38;;
76591;SDS011;65481;47.600;19.682;2022-12-07T09:44:47;15.93;;;10.80;;
76591;SDS011;65481;47.600;19.682;2022-12-07T09:49:47;15.25;;;10.30;;
76591;SDS011;65481;47.600;19.682;2022-12-07T09:54:49;17.17;;;10.63;;
76591;SDS011;65481;47.600;19.682;2022-12-07T09:59:50;14.63;;;8.68;;
76591;SDS011;65481;47.600;19.682;2022-12-07T10:04:51;10.95;;;7.57;;
76591;SDS011;65481;47.600;19.682;2022-12-07T10:09:51;13.50;;;8.73;;
76591;SDS011;65481;47.600;19.682;2022-12-07T10:15:03;11.57;;;7.80;;
76591;SDS011;65481;47.600;19.682;2022-12-07T10:20:14;12.50;;;8.07;;
76591;SDS011;65481;47.600;19.682;2022-12-07T10:25:20;10.10;;;6.95;;
76591;SDS011;65481;47.600;19.682;2022-12-07T10:30:21;9.57;;;7.18;;
76591;SDS011;65481;47.600;19.682;2022-12-07T10:35:26;11.13;;;7.50;;
76591;SDS011;65481;47.600;19.682;2022-12-07T10:45:34;10.80;;;7.90;;
76591;SDS011;65481;47.600;19.682;2022-12-07T11:01:21;11.13;;;7.83;;
76591;SDS011;65481;47.600;19.682;2022-12-07T11:06:46;10.43;;;7.30;;
76591;SDS011;65481;47.600;19.682;2022-12-07T11:17:35;7.90;;;5.30;;
76591;SDS011;65481;47.600;19.682;2022-12-07T11:22:51;5.57;;;4.43;;
76591;SDS011;65481;47.600;19.682;2022-12-07T11:28:25;19.65;;;9.65;;
76591;SDS011;65481;47.600;19.682;2022-12-07T11:39:50;5.43;;;4.10;;
76591;SDS011;65481;47.600;19.682;2022-12-07T11:55:59;6.25;;;4.30;;
76591;SDS011;65481;47.600;19.682;2022-12-07T12:06:15;6.00;;;4.53;;
76591;SDS011;65481;47.600;19.682;2022-12-07T12:11:30;6.43;;;4.50;;
76591;SDS011;65481;47.600;19.682;2022-12-07T12:22:16;12.20;;;7.90;;
76591;SDS011;65481;47.600;19.682;2022-12-07T12:42:44;16.13;;;10.75;;
76591;SDS011;65481;47.600;19.682;2022-12-07T12:47:53;10.85;;;7.55;;
76591;SDS011;65481;47.600;19.682;2022-12-07T12:53:14;8.40;;;6.15;;
76591;SDS011;65481;47.600;19.682;2022-12-07T13:03:29;9.05;;;6.68;;
76591;SDS011;65481;47.600;19.682;2022-12-07T13:08:30;10.73;;;7.05;;
76591;SDS011;65481;47.600;19.682;2022-12-07T13:13:32;11.20;;;7.88;;
76591;SDS011;65481;47.600;19.682;2022-12-07T13:33:48;10.90;;;7.68;;
76591;SDS011;65481;47.600;19.682;2022-12-07T13:38:49;10.93;;;7.68;;
76591;SDS011;65481;47.600;19.682;2022-12-07T13:43:59;10.20;;;6.43;;
76591;SDS011;65481;47.600;19.682;2022-12-07T13:49:18;10.35;;;6.15;;
76591;SDS011;65481;47.600;19.682;2022-12-07T13:54:21;9.25;;;6.28;;
76591;SDS011;65481;47.600;19.682;2022-12-07T13:59:23;10.32;;;6.85;;
76591;SDS011;65481;47.600;19.682;2022-12-07T14:09:31;10.32;;;6.68;;
76591;SDS011;65481;47.600;19.682;2022-12-07T14:14:32;24.15;;;13.35;;
76591;SDS011;65481;47.600;19.682;2022-12-07T14:19:40;25.38;;;15.43;;
76591;SDS011;65481;47.600;19.682;2022-12-07T14:24:45;17.95;;;11.45;;
76591;SDS011;65481;47.600;19.682;2022-12-07T14:29:45;9.90;;;6.85;;
76591;SDS011;65481;47.600;19.682;2022-12-07T14:34:53;10.02;;;6.25;;
76591;SDS011;65481;47.600;19.682;2022-12-07T14:39:55;11.15;;;6.88;;
76591;SDS011;65481;47.600;19.682;2022-12-07T14:44:56;14.98;;;8.40;;
76591;SDS011;65481;47.600;19.682;2022-12-07T14:49:58;13.55;;;7.55;;
76591;SDS011;65481;47.600;19.682;2022-12-07T14:54:58;14.52;;;9.65;;
76591;SDS011;65481;47.600;19.682;2022-12-07T14:59:59;17.25;;;9.20;;
76591;SDS011;65481;47.600;19.682;2022-12-07T15:04:59;14.90;;;9.30;;
76591;SDS011;65481;47.600;19.682;2022-12-07T15:09:59;17.33;;;10.27;;
76591;SDS011;65481;47.600;19.682;2022-12-07T15:15:01;27.40;;;14.98;;
76591;SDS011;65481;47.600;19.682;2022-12-07T15:20:01;12.93;;;7.97;;
76591;SDS011;65481;47.600;19.682;2022-12-07T15:25:03;13.23;;;8.75;;
76591;SDS011;65481;47.600;19.682;2022-12-07T15:30:06;13.73;;;7.90;;
76591;SDS011;65481;47.600;19.682;2022-12-07T15:35:07;14.52;;;7.75;;
76591;SDS011;65481;47.600;19.682;2022-12-07T15:40:08;15.55;;;9.73;;
76591;SDS011;65481;47.600;19.682;2022-12-07T15:45:09;15.88;;;9.38;;
76591;SDS011;65481;47.600;19.682;2022-12-07T15:50:12;17.35;;;10.38;;
76591;SDS011;65481;47.600;19.682;2022-12-07T15:55:13;16.60;;;9.32;;
76591;SDS011;65481;47.600;19.682;2022-12-07T16:00:14;17.83;;;9.75;;
76591;SDS011;65481;47.600;19.682;2022-12-07T16:05:15;16.75;;;10.02;;
76591;SDS011;65481;47.600;19.682;2022-12-07T16:10:16;18.05;;;11.60;;
76591;SDS011;65481;47.600;19.682;2022-12-07T16:15:16;22.25;;;13.50;;
76591;SDS011;65481;47.600;19.682;2022-12-07T16:20:17;22.10;;;13.40;;
76591;SDS011;65481;47.600;19.682;2022-12-07T16:25:17;22.13;;;13.82;;
76591;SDS011;65481;47.600;19.682;2022-12-07T16:30:18;21.45;;;13.85;;
76591;SDS011;65481;47.600;19.682;2022-12-07T16:35:19;24.00;;;13.95;;
76591;SDS011;65481;47.600;19.682;2022-12-07T16:40:19;17.92;;;11.13;;
76591;SDS011;65481;47.600;19.682;2022-12-07T16:45:20;16.42;;;9.90;;
76591;SDS011;65481;47.600;19.682;2022-12-07T16:50:20;16.35;;;9.23;;
76591;SDS011;65481;47.600;19.682;2022-12-07T16:55:20;13.00;;;7.63;;
76591;SDS011;65481;47.600;19.682;2022-12-07T17:00:21;14.57;;;8.20;;
76591;SDS011;65481;47.600;19.682;2022-12-07T17:05:21;17.00;;;9.57;;
76591;SDS011;65481;47.600;19.682;2022-12-07T17:10:24;15.13;;;9.45;;
76591;SDS011;65481;47.600;19.682;2022-12-07T17:15:25;14.43;;;9.65;;
76591;SDS011;65481;47.600;19.682;2022-12-07T17:20:26;17.58;;;10.32;;
76591;SDS011;65481;47.600;19.682;2022-12-07T17:25:27;16.73;;;9.63;;
76591;SDS011;65481;47.600;19.682;2022-12-07T17:30:27;15.30;;;9.38;;
76591;SDS011;65481;47.600;19.682;2022-12-07T17:35:29;17.55;;;9.48;;
76591;SDS011;65481;47.600;19.682;2022-12-07T17:40:29;14.60;;;8.60;;
76591;SDS011;65481;47.600;19.682;2022-12-07T17:45:30;14.77;;;7.90;;
76591;SDS011;65481;47.600;19.682;2022-12-07T17:50:30;16.88;;;8.73;;
76591;SDS011;65481;47.600;19.682;2022-12-07T17:55:51;14.55;;;8.63;;
76591;SDS011;65481;47.600;19.682;2022-12-07T18:00:53;14.77;;;8.40;;
76591;SDS011;65481;47.600;19.682;2022-12-07T18:05:54;17.13;;;9.40;;
76591;SDS011;65481;47.600;19.682;2022-12-07T18:10:58;16.13;;;8.93;;
76591;SDS011;65481;47.600;19.682;2022-12-07T18:15:59;18.58;;;8.75;;
76591;SDS011;65481;47.600;19.682;2022-12-07T18:21:02;18.85;;;10.07;;
76591;SDS011;65481;47.600;19.682;2022-12-07T18:26:16;18.42;;;9.88;;
76591;SDS011;65481;47.600;19.682;2022-12-07T18:31:19;17.77;;;10.00;;
76591;SDS011;65481;47.600;19.682;2022-12-07T18:36:20;25.17;;;14.95;;
76591;SDS011;65481;47.600;19.682;2022-12-07T18:41:21;19.40;;;10.00;;
76591;SDS011;65481;47.600;19.682;2022-12-07T18:46:22;22.60;;;12.70;;
76591;SDS011;65481;47.600;19.682;2022-12-07T18:51:25;22.00;;;11.98;;
76591;SDS011;65481;47.600;19.682;2022-12-07T18:56:27;20.13;;;11.63;;
76591;SDS011;65481;47.600;19.682;2022-12-07T19:01:29;20.60;;;10.65;;
76591;SDS011;65481;47.600;19.682;2022-12-07T19:06:30;18.15;;;11.82;;
76591;SDS011;65481;47.600;19.682;2022-12-07T19:11:33;22.73;;;12.60;;
76591;SDS011;65481;47.600;19.682;2022-12-07T19:16:50;22.75;;;13.88;;
76591;SDS011;65481;47.600;19.682;2022-12-07T19:21:53;25.65;;;13.98;;
76591;SDS011;65481;47.600;19.682;2022-12-07T19:26:54;23.80;;;12.73;;
76591;SDS011;65481;47.600;19.682;2022-12-07T19:31:55;21.17;;;11.80;;
76591;SDS011;65481;47.600;19.682;2022-12-07T19:36:57;21.08;;;12.40;;
76591;SDS011;65481;47.600;19.682;2022-12-07T19:41:58;20.10;;;11.73;;
76591;SDS011;65481;47.600;19.682;2022-12-07T19:46:59;22.35;;;12.90;;
76591;SDS011;65481;47.600;19.682;2022-12-07T19:52:03;23.83;;;11.68;;
76591;SDS011;65481;47.600;19.682;2022-12-07T19:57:05;23.45;;;12.20;;
76591;SDS011;65481;47.600;19.682;2022-12-07T20:02:09;19.70;;;11.95;;
76591;SDS011;65481;47.600;19.682;2022-12-07T20:07:12;22.77;;;12.73;;
76591;SDS011;65481;47.600;19.682;2022-12-07T20:12:13;25.92;;;12.82;;
76591;SDS011;65481;47.600;19.682;2022-12-07T20:17:33;24.70;;;13.80;;
76591;SDS011;65481;47.600;19.682;2022-12-07T20:22:34;25.23;;;13.10;;
76591;SDS011;65481;47.600;19.682;2022-12-07T20:27:35;28.88;;;14.00;;
76591;SDS011;65481;47.600;19.682;2022-12-07T20:32:36;27.75;;;14.40;;
76591;SDS011;65481;47.600;19.682;2022-12-07T20:37:38;27.90;;;14.63;;
76591;SDS011;65481;47.600;19.682;2022-12-07T20:42:39;28.83;;;15.38;;
76591;SDS011;65481;47.600;19.682;2022-12-07T20:47:40;27.38;;;15.07;;
76591;SDS011;65481;47.600;19.682;2022-12-07T20:52:41;24.58;;;14.13;;
76591;SDS011;65481;47.600;19.682;2022-12-07T20:57:41;28.40;;;14.35;;
76591;SDS011;65481;47.600;19.682;2022-12-07T21:02:43;25.40;;;14.30;;
76591;SDS011;65481;47.600;19.682;2022-12-07T21:07:44;26.95;;;13.75;;
76591;SDS011;65481;47.600;19.682;2022-12-07T21:12:45;24.75;;;12.77;;
76591;SDS011;65481;47.600;19.682;2022-12-07T21:17:45;26.58;;;13.38;;
76591;SDS011;65481;47.600;19.682;2022-12-07T21:22:46;24.52;;;12.80;;
76591;SDS011;65481;47.600;19.682;2022-12-07T21:27:46;26.75;;;14.32;;
76591;SDS011;65481;47.600;19.682;2022-12-07T21:32:47;27.13;;;12.82;;
76591;SDS011;65481;47.600;19.682;2022-12-07T21:37:47;83.85;;;34.15;;
76591;SDS011;65481;47.600;19.682;2022-12-07T21:42:51;36.05;;;16.02;;
76591;SDS011;65481;47.600;19.682;2022-12-07T21:47:52;30.77;;;14.35;;
76591;SDS011;65481;47.600;19.682;2022-12-07T21:52:53;27.10;;;14.52;;
76591;SDS011;65481;47.600;19.682;2022-12-07T21:57:53;28.52;;;14.20;;
76591;SDS011;65481;47.600;19.682;2022-12-07T22:02:53;24.33;;;14.15;;
76591;SDS011;65481;47.600;19.682;2022-12-07T22:07:54;27.40;;;13.60;;
76591;SDS011;65481;47.600;19.682;2022-12-07T22:12:57;30.75;;;16.00;;
76591;SDS011;65481;47.600;19.682;2022-12-07T22:17:59;30.05;;;15.75;;
76591;SDS011;65481;47.600;19.682;2022-12-07T22:22:59;34.17;;;16.98;;
76591;SDS011;65481;47.600;19.682;2022-12-07T22:28:00;32.05;;;16.88;;
76591;SDS011;65481;47.600;19.682;2022-12-07T22:33:00;31.58;;;16.02;;
76591;SDS011;65481;47.600;19.682;2022-12-07T22:38:01;30.33;;;15.95;;
76591;SDS011;65481;47.600;19.682;2022-12-07T22:43:01;29.38;;;15.55;;
76591;SDS011;65481;47.600;19.682;2022-12-07T22:48:02;38.03;;;19.08;;
76591;SDS011;65481;47.600;19.682;2022-12-07T22:53:02;37.38;;;17.83;;
76591;SDS011;65481;47.600;19.682;2022-12-07T22:58:04;30.02;;;15.68;;
76591;SDS011;65481;47.600;19.682;2022-12-07T23:03:04;30.80;;;16.17;;
76591;SDS011;65481;47.600;19.682;2022-12-07T23:08:05;34.63;;;18.02;;
76591;SDS011;65481;47.600;19.682;2022-12-07T23:13:05;38.67;;;20.58;;
76591;SDS011;65481;47.600;19.682;2022-12-07T23:18:24;39.17;;;19.58;;
76591;SDS011;65481;47.600;19.682;2022-12-07T23:23:25;45.97;;;20.33;;
76591;SDS011;65481;47.600;19.682;2022-12-07T23:28:26;45.22;;;21.67;;
76591;SDS011;65481;47.600;19.682;2022-12-07T23:33:26;99.20;;;34.38;;
76591;SDS011;65481;47.600;19.682;2022-12-07T23:38:26;137.63;;;47.80;;
76591;SDS011;65481;47.600;19.682;2022-12-07T23:43:27;220.13;;;68.03;;
76591;SDS011;65481;47.600;19.682;2022-12-07T23:48:27;262.85;;;75.28;;
76591;SDS011;65481;47.600;19.682;2022-12-07T23:53:28;243.48;;;72.05;;
76591;SDS011;65481;47.600;19.682;2022-12-07T23:58:32;193.05;;;56.08;;
